Arnold, Illinois
Current Conditions -  °F | °C
As of 7:35 AM on Thursday 30 Oct 2014 (Local Time) from KIJX Reporting Station
Overcast Overcast  
Wind Chill: 38°   Ceiling: 11000
Heat Index: 43°   Visibility: 10mi
Dew Point: 38°   Wind: 8mph
Humidity: 81%   Direction: 160°SSE
Pressure: 30.13"   Gusts: NA
Location:  39.7413°N, 90.2138°W
Report Text: KIJX 301235Z AUTO 16007KT 10SM OVC110 06/03 A3013 RMK AO2 T00620031
Loading
Personal Weather Stations






























Interactive Weather Map
Tropical Storm Tracking
New forecast layout! Learn more

10-Day Weather Forecast

Advertisements
Track Severe Weather on mobile